FW0782 Weather Reports


Display with metric or nautical units.
time (UTC)temp
F
wind
direction
speed
MPH
gust
MPH
rain 1hr
in
rain 24hr
in
rain mn
in
humidity
%
barometer
mb
20200124091003 37 254 3.0 5.0 0.00 0.00 0.00 97 1024.1
20200124090004 37 238 3.0 4.0 0.00 0.00 0.00 97 1024.1
20200124085004 37 236 5.0 7.0 0.00 0.00 0.00 96 1024.2
20200124084003 37 275 2.0 5.0 0.00 0.00 0.00 96 1024.1
20200124083004 37 276 1.0 4.0 0.00 0.00 0.00 96 1024.2
20200124082004 37 275 4.0 5.0 0.00 0.00 0.00 96 1024.1
20200124081004 37 231 4.0 8.0 0.00 0.00 0.00 96 1024.0
20200124080004 37 222 5.0 9.0 0.00 0.00 0.00 96 1024.0
20200124075004 37 226 3.0 6.0 0.00 0.00 0.00 96 1023.8
20200124074004 37 219 4.0 7.0 0.00 0.00 0.00 96 1023.6
20200124073004 37 203 4.0 6.0 0.00 0.00 0.00 96 1023.5
20200124072004 37 211 5.0 8.0 0.00 0.00 0.00 96 1023.4
20200124071004 37 209 3.0 7.0 0.00 0.00 0.00 96 1023.5
20200124070004 37 202 5.0 8.0 0.00 0.00 0.00 96 1023.5
20200124065004 37 187 5.0 6.0 0.00 0.00 0.00 96 1023.6
20200124064004 38 189 4.0 6.0 0.00 0.00 0.00 96 1023.6
20200124063004 38 188 2.0 4.0 0.00 0.00 0.00 96 1023.5
20200124062004 38 189 1.0 4.0 0.00 0.00 0.00 96 1023.5
20200124061004 37 189 2.0 4.0 0.00 0.00 0.00 96 1023.5
20200124060004 37 188 1.0 3.0 0.00 0.00 0.00 96 1023.7
20200124055003 37 188 1.0 2.0 0.00 0.00 0.00 96 1023.6
20200124054004 37 188 1.0 3.0 0.00 0.00 0.00 96 1023.6
20200124053004 37 189 2.0 4.0 0.00 0.00 0.00 96 1023.6
20200124052004 37 156 1.0 3.0 0.00 0.00 0.00 96 1023.5
20200124051004 38 156 1.0 2.0 0.00 0.00 0.00 96 1023.6
20200124050004 37 150 2.0 4.0 0.00 0.00 0.00 96 1023.6
20200124045004 37 184 1.0 2.0 0.00 0.00 0.00 96 1023.5
20200124044003 38 186 1.0 3.0 0.00 0.00 0.00 96 1023.5
20200124043004 38 182 3.0 5.0 0.00 0.00 0.00 96 1023.5
20200124042004 37 211 2.0 4.0 0.00 0.00 0.00 96 1023.6
20200124041004 37 0 0.0 0.0 0.00 0.00 0.00 96 1023.7
20200124040004 37 0 0.0 0.0 0.00 0.00 0.00 95 1023.9
20200124035004 37 210 1.0 2.0 0.00 0.00 0.00 95 1023.9
20200124034004 37 211 0.0 2.0 0.00 0.00 0.00 95 1024.1
20200124033004 37 209 1.0 2.0 0.00 0.00 0.00 95 1024.2
20200124032004 37 205 0.0 1.0 0.00 0.00 0.00 95 1024.3
20200124031004 37 0 0.0 0.0 0.00 0.00 0.00 95 1024.4
20200124030004 37 0 0.0 0.0 0.00 0.00 0.00 95 1024.5
20200124025004 37 0 0.0 0.0 0.00 0.00 0.00 95 1024.6
20200124024004 37 206 1.0 2.0 0.00 0.00 0.00 95 1024.7
20200124023004 37 205 0.0 1.0 0.00 0.00 0.00 95 1024.8
20200124022004 37 206 2.0 4.0 0.00 0.00 0.00 95 1024.9
20200124021004 37 214 2.0 3.0 0.00 0.00 0.00 95 1025.1
20200124020003 37 145 0.0 1.0 0.00 0.00 0.00 94 1025.1
20200124015004 37 145 1.0 3.0 0.00 0.00 0.00 94 1025.2
20200124014003 37 146 0.0 1.0 0.00 0.00 0.00 94 1025.3
20200124013004 37 145 0.0 2.0 0.00 0.00 0.00 94 1025.4
20200124012004 37 78 1.0 2.0 0.00 0.00 0.00 94 1025.4
20200124011004 37 78 1.0 2.0 0.00 0.00 0.00 94 1025.7
20200124010004 37 78 0.0 1.0 0.00 0.00 0.00 94 1025.7
20200124005004 37 78 1.0 2.0 0.00 0.00 0.00 94 1025.7
20200124004004 37 78 1.0 2.0 0.00 0.00 0.00 93 1025.8
20200124003004 38 79 3.0 5.0 0.00 0.00 0.00 93 1026.0
20200124002004 38 57 1.0 3.0 0.00 0.00 0.00 93 1026.0
20200124001004 38 58 1.0 3.0 0.00 0.00 0.00 92 1026.0
20200124000003 38 58 2.0 4.0 0.00 0.00 0.00 92 1026.1
20200123235004 38 57 3.0 5.0 0.00 0.00 0.00 92 1026.2
20200123234003 38 105 4.0 5.0 0.00 0.00 0.00 91 1026.2
20200123233004 38 107 5.0 6.0 0.00 0.00 0.00 91 1026.2
20200123232004 38 143 4.0 7.0 0.00 0.00 0.00 91 1026.4
20200123231004 38 109 7.0 8.0 0.00 0.00 0.00 91 1026.4
20200123230005 38 124 4.0 6.0 0.00 0.00 0.00 91 1026.3
20200123225004 38 142 5.0 8.0 0.00 0.00 0.00 91 1026.3
20200123224004 39 152 4.0 7.0 0.00 0.00 0.00 91 1026.3
20200123223004 39 149 2.0 5.0 0.00 0.00 0.00 91 1026.5
20200123222003 39 149 4.0 7.0 0.00 0.00 0.00 90 1026.5
20200123221003 39 113 4.0 7.0 0.00 0.00 0.00 90 1026.6
20200123220004 39 106 3.0 5.0 0.00 0.00 0.00 90 1026.7
20200123215004 39 105 3.0 5.0 0.00 0.00 0.00 90 1026.7
20200123214004 39 103 6.0 7.0 0.00 0.00 0.00 89 1026.6
20200123213004 40 107 5.0 8.0 0.00 0.00 0.00 90 1026.6
20200123212003 40 109 5.0 7.0 0.00 0.00 0.00 89 1026.6
20200123211003 40 104 6.0 9.0 0.00 0.00 0.00 89 1026.7
20200123210002 40 108 6.0 8.0 0.00 0.00 0.00 89 1026.7
20200123205002 40 78 3.0 5.0 0.00 0.00 0.00 89 1026.7
20200123204003 40 73 5.0 8.0 0.00 0.00 0.00 89 1026.7
20200123203003 40 78 6.0 9.0 0.00 0.00 0.00 89 1026.7
20200123202002 40 101 6.0 9.0 0.00 0.00 0.00 89 1026.8
20200123201003 40 100 7.0 8.0 0.00 0.00 0.00 89 1026.9
20200123200003 40 107 6.0 9.0 0.00 0.00 0.00 89 1027.0
20200123195003 40 97 6.0 9.0 0.00 0.00 0.00 89 1027.1
20200123194002 40 71 5.0 7.0 0.00 0.00 0.00 90 1027.2
20200123193002 40 84 5.0 7.0 0.00 0.00 0.00 90 1027.3
20200123192002 40 70 6.0 9.0 0.00 0.00 0.00 91 1027.4
20200123191002 40 66 6.0 8.0 0.00 0.00 0.00 91 1027.4
20200123190003 39 97 5.0 7.0 0.00 0.00 0.00 91 1027.4
20200123185003 39 103 5.0 7.0 0.00 0.00 0.00 91 1027.5
20200123184003 38 107 4.0 6.0 0.00 0.00 0.00 91 1027.6
20200123183003 38 107 3.0 4.0 0.00 0.00 0.00 90 1027.6
20200123182004 39 107 4.0 5.0 0.00 0.00 0.00 90 1027.6
20200123181003 39 106 6.0 7.0 0.00 0.00 0.00 90 1027.7
20200123180003 39 109 4.0 6.0 0.00 0.00 0.00 91 1027.6
20200123175003 39 110 3.0 5.0 0.00 0.00 0.00 91 1027.7
20200123174003 39 109 4.0 5.0 0.00 0.00 0.00 91 1027.8
20200123173003 39 109 3.0 5.0 0.00 0.00 0.00 91 1027.8
20200123172003 40 109 1.0 3.0 0.00 0.00 0.00 91 1027.9
20200123171003 40 110 2.0 4.0 0.00 0.00 0.00 91 1028.0
20200123170003 40 109 3.0 5.0 0.00 0.00 0.00 90 1028.1
20200123165003 40 110 3.0 4.0 0.00 0.00 0.00 90 1028.3
20200123164003 40 109 2.0 2.0 0.00 0.00 0.00 90 1028.3
20200123163003 40 109 2.0 3.0 0.00 0.00 0.00 89 1028.3
20200123162003 40 110 3.0 5.0 0.00 0.00 0.00 89 1028.3
20200123161002 41 109 4.0 6.0 0.00 0.00 0.00 88 1028.4
20200123160003 41 116 6.0 8.0 0.00 0.00 0.00 88 1028.4
20200123155003 42 108 6.0 8.0 0.00 0.00 0.00 87 1028.4
20200123154003 42 107 7.0 9.0 0.00 0.00 0.00 87 1028.5
20200123153003 43 105 6.0 8.0 0.00 0.00 0.00 87 1028.5
20200123152003 43 100 8.0 11.0 0.00 0.00 0.00 86 1028.7
20200123151003 43 98 8.0 9.0 0.00 0.00 0.00 86 1028.8
20200123150003 43 100 7.0 10.0 0.00 0.00 0.00 87 1028.8
20200123145003 43 109 10.0 12.0 0.00 0.00 0.00 86 1028.9
20200123144003 44 104 10.0 12.0 0.00 0.00 0.00 86 1029.0
20200123143003 44 90 8.0 11.0 0.00 0.00 0.00 87 1029.2
20200123142003 44 103 9.0 11.0 0.00 0.00 0.00 87 1029.3
20200123141003 44 104 10.0 12.0 0.00 0.00 0.00 87 1029.4
20200123140003 44 103 8.0 11.0 0.00 0.00 0.00 88 1029.5
20200123135003 44 100 6.0 8.0 0.00 0.00 0.00 89 1029.6
20200123134003 44 99 7.0 9.0 0.00 0.00 0.00 89 1029.8
20200123133003 44 105 9.0 11.0 0.00 0.00 0.00 90 1029.9
20200123132002 44 92 6.0 9.0 0.00 0.00 0.00 90 1030.0
20200123131002 44 78 6.0 9.0 0.00 0.00 0.00 91 1030.2
20200123130004 44 60 6.0 8.0 0.00 0.00 0.00 92 1030.4
20200123125004 44 62 7.0 9.0 0.00 0.00 0.00 92 1030.5
20200123124003 44 68 7.0 10.0 0.00 0.00 0.00 92 1030.6
20200123123003 44 69 7.0 11.0 0.00 0.00 0.00 93 1030.8
20200123122003 44 90 7.0 11.0 0.00 0.00 0.00 95 1031.0
20200123121003 44 100 6.0 8.0 0.00 0.00 0.00 97 1031.2
20200123120003 43 99 6.0 8.0 0.00 0.00 0.00 98 1031.3
20200123115003 43 107 7.0 9.0 0.00 0.00 0.00 98 1031.4
20200123114003 43 98 6.0 8.0 0.00 0.00 0.00 98 1031.6
20200123113002 43 76 4.0 6.0 0.00 0.00 0.00 98 1031.7
20200123112003 43 73 6.0 9.0 0.00 0.00 0.00 98 1031.9
20200123111003 43 82 6.0 8.0 0.00 0.00 0.00 98 1032.0
20200123110003 43 74 7.0 10.0 0.00 0.00 0.00 98 1032.2
20200123105003 43 78 4.0 7.0 0.00 0.00 0.00 98 1032.3
20200123104003 43 59 6.0 8.0 0.00 0.00 0.00 98 1032.5
20200123103003 43 79 4.0 7.0 0.00 0.00 0.00 98 1032.6
20200123102003 43 83 3.0 6.0 0.00 0.00 0.00 98 1032.5
20200123101003 43 108 5.0 7.0 0.00 0.00 0.00 98 1032.7
20200123100003 43 78 3.0 6.0 0.00 0.00 0.00 98 1032.9
20200123095003 43 98 4.0 6.0 0.00 0.00 0.00 98 1033.0
20200123094003 42 99 2.0 4.0 0.00 0.00 0.00 98 1033.0
20200123093003 42 99 3.0 5.0 0.00 0.00 0.00 98 1033.0
20200123092002 42 99 2.0 5.0 0.00 0.00 0.00 98 1033.0